sensor_id;sensor_type;location;lat;lon;timestamp;P1;durP1;ratioP1;P2;durP2;ratioP2
82159;SDS011;71734;50.876;7.372;2023-08-21T00:02:21;10.00;;;7.47;;
82159;SDS011;71734;50.876;7.372;2023-08-21T00:04:47;10.05;;;7.72;;
82159;SDS011;71734;50.876;7.372;2023-08-21T00:07:13;11.25;;;8.80;;
82159;SDS011;71734;50.876;7.372;2023-08-21T00:09:40;10.07;;;7.00;;
82159;SDS011;71734;50.876;7.372;2023-08-21T00:12:08;10.10;;;7.93;;
82159;SDS011;71734;50.876;7.372;2023-08-21T00:14:35;11.25;;;7.93;;
82159;SDS011;71734;50.876;7.372;2023-08-21T00:17:03;10.45;;;7.72;;
82159;SDS011;71734;50.876;7.372;2023-08-21T00:19:36;10.85;;;7.82;;
82159;SDS011;71734;50.876;7.372;2023-08-21T00:22:02;12.18;;;8.48;;
82159;SDS011;71734;50.876;7.372;2023-08-21T00:24:29;9.27;;;7.53;;
82159;SDS011;71734;50.876;7.372;2023-08-21T00:26:56;8.98;;;7.20;;
82159;SDS011;71734;50.876;7.372;2023-08-21T00:29:23;11.38;;;8.60;;
82159;SDS011;71734;50.876;7.372;2023-08-21T00:31:50;9.55;;;7.15;;
82159;SDS011;71734;50.876;7.372;2023-08-21T00:34:17;10.43;;;8.40;;
82159;SDS011;71734;50.876;7.372;2023-08-21T00:36:46;10.23;;;7.07;;
82159;SDS011;71734;50.876;7.372;2023-08-21T00:39:12;8.73;;;7.43;;
82159;SDS011;71734;50.876;7.372;2023-08-21T00:41:39;10.00;;;7.32;;
82159;SDS011;71734;50.876;7.372;2023-08-21T00:44:07;9.52;;;7.70;;
82159;SDS011;71734;50.876;7.372;2023-08-21T00:46:34;9.98;;;7.43;;
82159;SDS011;71734;50.876;7.372;2023-08-21T00:49:02;10.43;;;7.50;;
82159;SDS011;71734;50.876;7.372;2023-08-21T00:51:32;9.70;;;7.40;;
82159;SDS011;71734;50.876;7.372;2023-08-21T00:53:59;9.18;;;7.05;;
82159;SDS011;71734;50.876;7.372;2023-08-21T00:56:26;9.60;;;7.43;;
82159;SDS011;71734;50.876;7.372;2023-08-21T00:58:52;10.15;;;7.40;;
82159;SDS011;71734;50.876;7.372;2023-08-21T01:01:19;9.77;;;7.68;;
82159;SDS011;71734;50.876;7.372;2023-08-21T01:03:49;11.57;;;7.32;;
82159;SDS011;71734;50.876;7.372;2023-08-21T01:06:16;8.27;;;6.75;;
82159;SDS011;71734;50.876;7.372;2023-08-21T01:08:46;10.88;;;7.97;;
82159;SDS011;71734;50.876;7.372;2023-08-21T01:13:50;9.82;;;7.20;;
82159;SDS011;71734;50.876;7.372;2023-08-21T01:16:21;10.38;;;7.72;;
82159;SDS011;71734;50.876;7.372;2023-08-21T01:18:49;17.73;;;7.88;;
82159;SDS011;71734;50.876;7.372;2023-08-21T01:21:16;8.82;;;6.53;;
82159;SDS011;71734;50.876;7.372;2023-08-21T01:23:44;9.68;;;7.72;;
82159;SDS011;71734;50.876;7.372;2023-08-21T01:26:11;11.05;;;7.90;;
82159;SDS011;71734;50.876;7.372;2023-08-21T01:28:37;14.07;;;8.40;;
82159;SDS011;71734;50.876;7.372;2023-08-21T01:31:06;10.50;;;7.97;;
82159;SDS011;71734;50.876;7.372;2023-08-21T01:33:35;10.77;;;7.07;;
82159;SDS011;71734;50.876;7.372;2023-08-21T01:36:07;12.65;;;8.65;;
82159;SDS011;71734;50.876;7.372;2023-08-21T01:38:34;9.70;;;6.70;;
82159;SDS011;71734;50.876;7.372;2023-08-21T01:41:02;11.60;;;8.00;;
82159;SDS011;71734;50.876;7.372;2023-08-21T01:43:29;10.38;;;7.25;;
82159;SDS011;71734;50.876;7.372;2023-08-21T01:45:55;11.27;;;8.02;;
82159;SDS011;71734;50.876;7.372;2023-08-21T01:48:22;11.15;;;7.95;;
82159;SDS011;71734;50.876;7.372;2023-08-21T01:50:48;10.90;;;7.80;;
82159;SDS011;71734;50.876;7.372;2023-08-21T01:53:15;10.52;;;8.15;;
82159;SDS011;71734;50.876;7.372;2023-08-21T01:55:41;11.57;;;7.63;;
82159;SDS011;71734;50.876;7.372;2023-08-21T01:58:09;10.75;;;7.93;;
82159;SDS011;71734;50.876;7.372;2023-08-21T02:00:36;9.75;;;7.25;;
82159;SDS011;71734;50.876;7.372;2023-08-21T02:03:02;11.13;;;8.68;;
82159;SDS011;71734;50.876;7.372;2023-08-21T02:05:29;10.07;;;7.80;;
82159;SDS011;71734;50.876;7.372;2023-08-21T02:08:06;9.02;;;7.00;;
82159;SDS011;71734;50.876;7.372;2023-08-21T02:10:35;11.38;;;7.82;;
82159;SDS011;71734;50.876;7.372;2023-08-21T02:13:03;11.15;;;7.72;;
82159;SDS011;71734;50.876;7.372;2023-08-21T02:15:31;10.85;;;7.45;;
82159;SDS011;71734;50.876;7.372;2023-08-21T02:17:57;10.32;;;7.32;;
82159;SDS011;71734;50.876;7.372;2023-08-21T02:20:24;9.60;;;6.88;;
82159;SDS011;71734;50.876;7.372;2023-08-21T02:22:50;10.63;;;7.28;;
82159;SDS011;71734;50.876;7.372;2023-08-21T02:25:17;10.43;;;7.72;;
82159;SDS011;71734;50.876;7.372;2023-08-21T02:27:53;9.77;;;7.10;;
82159;SDS011;71734;50.876;7.372;2023-08-21T02:30:20;10.02;;;7.50;;
82159;SDS011;71734;50.876;7.372;2023-08-21T02:32:54;12.00;;;7.70;;
82159;SDS011;71734;50.876;7.372;2023-08-21T02:35:21;9.85;;;8.05;;
82159;SDS011;71734;50.876;7.372;2023-08-21T02:37:57;10.32;;;7.63;;
82159;SDS011;71734;50.876;7.372;2023-08-21T02:40:30;10.65;;;7.40;;
82159;SDS011;71734;50.876;7.372;2023-08-21T02:42:57;9.18;;;7.00;;
82159;SDS011;71734;50.876;7.372;2023-08-21T02:45:23;10.45;;;7.63;;
82159;SDS011;71734;50.876;7.372;2023-08-21T02:47:52;9.68;;;7.30;;
82159;SDS011;71734;50.876;7.372;2023-08-21T02:50:21;8.85;;;7.20;;
82159;SDS011;71734;50.876;7.372;2023-08-21T02:52:48;10.27;;;7.13;;
82159;SDS011;71734;50.876;7.372;2023-08-21T02:55:25;10.95;;;7.63;;
82159;SDS011;71734;50.876;7.372;2023-08-21T02:57:52;10.25;;;7.63;;
82159;SDS011;71734;50.876;7.372;2023-08-21T03:00:21;10.15;;;7.35;;
82159;SDS011;71734;50.876;7.372;2023-08-21T03:02:48;10.60;;;7.22;;
82159;SDS011;71734;50.876;7.372;2023-08-21T03:05:15;9.57;;;6.90;;
82159;SDS011;71734;50.876;7.372;2023-08-21T03:07:45;12.48;;;6.90;;
82159;SDS011;71734;50.876;7.372;2023-08-21T03:10:12;10.02;;;7.20;;
82159;SDS011;71734;50.876;7.372;2023-08-21T03:12:40;10.65;;;7.20;;
82159;SDS011;71734;50.876;7.372;2023-08-21T03:15:09;11.88;;;7.72;;
82159;SDS011;71734;50.876;7.372;2023-08-21T03:17:35;9.68;;;6.95;;
82159;SDS011;71734;50.876;7.372;2023-08-21T03:20:03;10.88;;;7.47;;
82159;SDS011;71734;50.876;7.372;2023-08-21T03:22:30;8.75;;;7.35;;
82159;SDS011;71734;50.876;7.372;2023-08-21T03:24:59;11.00;;;7.47;;
82159;SDS011;71734;50.876;7.372;2023-08-21T03:27:25;10.60;;;7.20;;
82159;SDS011;71734;50.876;7.372;2023-08-21T03:29:54;9.95;;;8.02;;
82159;SDS011;71734;50.876;7.372;2023-08-21T03:32:20;11.13;;;7.45;;
82159;SDS011;71734;50.876;7.372;2023-08-21T03:34:52;9.88;;;7.05;;
82159;SDS011;71734;50.876;7.372;2023-08-21T03:37:19;9.73;;;7.43;;
82159;SDS011;71734;50.876;7.372;2023-08-21T03:39:46;9.55;;;7.40;;
82159;SDS011;71734;50.876;7.372;2023-08-21T03:42:14;10.05;;;7.63;;
82159;SDS011;71734;50.876;7.372;2023-08-21T03:44:40;11.00;;;8.15;;
82159;SDS011;71734;50.876;7.372;2023-08-21T03:47:07;12.57;;;7.90;;
82159;SDS011;71734;50.876;7.372;2023-08-21T03:49:37;12.68;;;8.25;;
82159;SDS011;71734;50.876;7.372;2023-08-21T03:52:04;13.10;;;8.52;;
82159;SDS011;71734;50.876;7.372;2023-08-21T03:54:30;10.70;;;8.38;;
82159;SDS011;71734;50.876;7.372;2023-08-21T03:57:03;11.23;;;8.35;;
82159;SDS011;71734;50.876;7.372;2023-08-21T03:59:31;13.05;;;8.32;;
82159;SDS011;71734;50.876;7.372;2023-08-21T04:02:07;12.00;;;8.85;;
82159;SDS011;71734;50.876;7.372;2023-08-21T04:04:33;10.32;;;8.40;;
82159;SDS011;71734;50.876;7.372;2023-08-21T04:07:00;11.55;;;8.50;;
82159;SDS011;71734;50.876;7.372;2023-08-21T04:09:37;12.98;;;9.63;;
82159;SDS011;71734;50.876;7.372;2023-08-21T04:12:09;13.00;;;8.98;;
82159;SDS011;71734;50.876;7.372;2023-08-21T04:14:39;12.38;;;9.10;;
82159;SDS011;71734;50.876;7.372;2023-08-21T04:17:05;13.10;;;8.32;;
82159;SDS011;71734;50.876;7.372;2023-08-21T04:19:32;12.82;;;8.05;;
82159;SDS011;71734;50.876;7.372;2023-08-21T04:22:05;15.10;;;9.40;;
82159;SDS011;71734;50.876;7.372;2023-08-21T04:24:31;11.50;;;9.43;;
82159;SDS011;71734;50.876;7.372;2023-08-21T04:26:58;10.50;;;8.15;;
82159;SDS011;71734;50.876;7.372;2023-08-21T04:29:31;11.48;;;8.27;;
82159;SDS011;71734;50.876;7.372;2023-08-21T04:31:59;12.05;;;8.50;;
82159;SDS011;71734;50.876;7.372;2023-08-21T04:34:36;11.98;;;8.70;;
82159;SDS011;71734;50.876;7.372;2023-08-21T04:37:08;10.25;;;7.82;;
82159;SDS011;71734;50.876;7.372;2023-08-21T04:39:35;10.10;;;7.72;;
82159;SDS011;71734;50.876;7.372;2023-08-21T04:42:02;13.63;;;9.40;;
82159;SDS011;71734;50.876;7.372;2023-08-21T04:44:32;11.35;;;8.18;;
82159;SDS011;71734;50.876;7.372;2023-08-21T04:47:17;11.75;;;8.00;;
82159;SDS011;71734;50.876;7.372;2023-08-21T04:49:45;11.30;;;8.40;;
82159;SDS011;71734;50.876;7.372;2023-08-21T04:52:14;11.98;;;8.27;;
82159;SDS011;71734;50.876;7.372;2023-08-21T04:54:41;11.93;;;8.38;;
82159;SDS011;71734;50.876;7.372;2023-08-21T04:57:07;10.70;;;8.38;;
82159;SDS011;71734;50.876;7.372;2023-08-21T04:59:40;13.27;;;9.40;;
82159;SDS011;71734;50.876;7.372;2023-08-21T05:02:08;13.50;;;8.98;;
82159;SDS011;71734;50.876;7.372;2023-08-21T05:04:42;12.70;;;9.85;;
82159;SDS011;71734;50.876;7.372;2023-08-21T05:07:09;11.40;;;8.88;;
82159;SDS011;71734;50.876;7.372;2023-08-21T05:09:40;14.15;;;9.50;;
82159;SDS011;71734;50.876;7.372;2023-08-21T05:12:07;12.48;;;8.82;;
82159;SDS011;71734;50.876;7.372;2023-08-21T05:14:34;13.23;;;9.20;;
82159;SDS011;71734;50.876;7.372;2023-08-21T05:17:04;12.15;;;9.20;;
82159;SDS011;71734;50.876;7.372;2023-08-21T05:19:32;13.77;;;9.25;;
82159;SDS011;71734;50.876;7.372;2023-08-21T05:21:59;12.07;;;8.75;;
82159;SDS011;71734;50.876;7.372;2023-08-21T05:24:32;11.82;;;8.80;;
82159;SDS011;71734;50.876;7.372;2023-08-21T05:26:59;14.35;;;8.60;;
82159;SDS011;71734;50.876;7.372;2023-08-21T05:29:28;12.18;;;8.55;;
82159;SDS011;71734;50.876;7.372;2023-08-21T05:31:55;13.35;;;8.73;;
82159;SDS011;71734;50.876;7.372;2023-08-21T05:34:21;11.90;;;8.55;;
82159;SDS011;71734;50.876;7.372;2023-08-21T05:36:54;11.23;;;8.40;;
82159;SDS011;71734;50.876;7.372;2023-08-21T05:39:21;13.27;;;9.73;;
82159;SDS011;71734;50.876;7.372;2023-08-21T05:41:47;16.33;;;10.77;;
82159;SDS011;71734;50.876;7.372;2023-08-21T05:44:23;14.88;;;9.95;;
82159;SDS011;71734;50.876;7.372;2023-08-21T05:46:56;16.25;;;9.88;;
82159;SDS011;71734;50.876;7.372;2023-08-21T05:49:22;13.05;;;9.60;;
82159;SDS011;71734;50.876;7.372;2023-08-21T05:51:49;16.02;;;9.82;;
82159;SDS011;71734;50.876;7.372;2023-08-21T05:54:20;14.25;;;9.77;;
82159;SDS011;71734;50.876;7.372;2023-08-21T05:56:46;13.27;;;9.18;;
82159;SDS011;71734;50.876;7.372;2023-08-21T05:59:13;15.65;;;10.32;;
82159;SDS011;71734;50.876;7.372;2023-08-21T06:01:52;13.82;;;9.95;;
82159;SDS011;71734;50.876;7.372;2023-08-21T06:04:25;11.68;;;9.20;;
82159;SDS011;71734;50.876;7.372;2023-08-21T06:06:52;13.00;;;9.25;;
82159;SDS011;71734;50.876;7.372;2023-08-21T06:09:28;13.60;;;9.93;;
82159;SDS011;71734;50.876;7.372;2023-08-21T06:11:56;13.57;;;10.00;;
82159;SDS011;71734;50.876;7.372;2023-08-21T06:14:23;12.05;;;9.38;;
82159;SDS011;71734;50.876;7.372;2023-08-21T06:16:53;13.15;;;9.82;;
82159;SDS011;71734;50.876;7.372;2023-08-21T06:19:20;14.30;;;9.00;;
82159;SDS011;71734;50.876;7.372;2023-08-21T06:21:53;10.40;;;7.95;;
82159;SDS011;71734;50.876;7.372;2023-08-21T06:24:22;12.70;;;10.07;;
82159;SDS011;71734;50.876;7.372;2023-08-21T06:26:52;16.30;;;11.38;;
82159;SDS011;71734;50.876;7.372;2023-08-21T06:29:19;12.98;;;9.60;;
82159;SDS011;71734;50.876;7.372;2023-08-21T06:31:46;13.68;;;10.32;;
82159;SDS011;71734;50.876;7.372;2023-08-21T06:34:14;12.25;;;9.00;;
82159;SDS011;71734;50.876;7.372;2023-08-21T06:36:41;13.70;;;9.10;;
82159;SDS011;71734;50.876;7.372;2023-08-21T06:39:08;12.52;;;9.32;;
82159;SDS011;71734;50.876;7.372;2023-08-21T06:41:39;11.10;;;9.05;;
82159;SDS011;71734;50.876;7.372;2023-08-21T06:44:07;10.98;;;8.35;;
82159;SDS011;71734;50.876;7.372;2023-08-21T06:46:41;12.23;;;8.18;;
82159;SDS011;71734;50.876;7.372;2023-08-21T06:49:08;12.48;;;8.98;;
82159;SDS011;71734;50.876;7.372;2023-08-21T06:51:48;13.82;;;10.32;;
82159;SDS011;71734;50.876;7.372;2023-08-21T06:54:15;13.93;;;9.98;;
82159;SDS011;71734;50.876;7.372;2023-08-21T06:56:44;13.70;;;10.30;;
82159;SDS011;71734;50.876;7.372;2023-08-21T06:59:10;13.70;;;10.52;;
82159;SDS011;71734;50.876;7.372;2023-08-21T07:01:37;13.98;;;10.50;;
82159;SDS011;71734;50.876;7.372;2023-08-21T07:04:06;13.88;;;10.43;;
82159;SDS011;71734;50.876;7.372;2023-08-21T07:06:33;12.63;;;9.88;;
82159;SDS011;71734;50.876;7.372;2023-08-21T07:08:59;11.55;;;9.05;;
82159;SDS011;71734;50.876;7.372;2023-08-21T07:11:31;17.00;;;10.93;;
82159;SDS011;71734;50.876;7.372;2023-08-21T07:13:59;14.07;;;10.52;;
82159;SDS011;71734;50.876;7.372;2023-08-21T07:16:26;16.25;;;10.38;;
82159;SDS011;71734;50.876;7.372;2023-08-21T07:19:00;13.93;;;10.00;;
82159;SDS011;71734;50.876;7.372;2023-08-21T07:21:27;14.13;;;10.35;;
82159;SDS011;71734;50.876;7.372;2023-08-21T07:24:00;15.52;;;10.55;;
82159;SDS011;71734;50.876;7.372;2023-08-21T07:26:29;12.20;;;9.73;;
82159;SDS011;71734;50.876;7.372;2023-08-21T07:29:05;14.48;;;10.80;;
82159;SDS011;71734;50.876;7.372;2023-08-21T07:31:37;15.13;;;10.88;;
82159;SDS011;71734;50.876;7.372;2023-08-21T07:34:04;14.18;;;10.45;;
82159;SDS011;71734;50.876;7.372;2023-08-21T07:36:31;15.65;;;11.57;;
82159;SDS011;71734;50.876;7.372;2023-08-21T07:38:57;14.60;;;10.65;;
82159;SDS011;71734;50.876;7.372;2023-08-21T07:41:24;14.30;;;10.27;;
82159;SDS011;71734;50.876;7.372;2023-08-21T07:43:51;17.48;;;10.90;;
82159;SDS011;71734;50.876;7.372;2023-08-21T07:46:26;15.95;;;11.45;;
82159;SDS011;71734;50.876;7.372;2023-08-21T07:48:53;14.35;;;10.75;;
82159;SDS011;71734;50.876;7.372;2023-08-21T07:51:19;15.00;;;10.98;;
82159;SDS011;71734;50.876;7.372;2023-08-21T07:56:16;13.65;;;9.77;;
82159;SDS011;71734;50.876;7.372;2023-08-21T07:58:43;14.60;;;10.10;;
82159;SDS011;71734;50.876;7.372;2023-08-21T08:01:12;14.40;;;11.90;;
82159;SDS011;71734;50.876;7.372;2023-08-21T08:03:40;14.95;;;10.55;;
82159;SDS011;71734;50.876;7.372;2023-08-21T08:06:09;13.88;;;10.43;;
82159;SDS011;71734;50.876;7.372;2023-08-21T08:08:43;13.05;;;10.73;;
82159;SDS011;71734;50.876;7.372;2023-08-21T08:11:16;13.55;;;11.10;;
82159;SDS011;71734;50.876;7.372;2023-08-21T08:13:44;15.68;;;11.63;;
82159;SDS011;71734;50.876;7.372;2023-08-21T08:16:13;14.55;;;11.32;;
82159;SDS011;71734;50.876;7.372;2023-08-21T08:18:43;12.45;;;9.70;;
82159;SDS011;71734;50.876;7.372;2023-08-21T08:21:10;13.52;;;10.73;;
82159;SDS011;71734;50.876;7.372;2023-08-21T08:23:36;12.73;;;9.70;;
82159;SDS011;71734;50.876;7.372;2023-08-21T08:26:03;11.90;;;9.32;;
82159;SDS011;71734;50.876;7.372;2023-08-21T08:28:29;12.93;;;9.90;;
82159;SDS011;71734;50.876;7.372;2023-08-21T08:31:02;12.65;;;10.00;;
82159;SDS011;71734;50.876;7.372;2023-08-21T08:33:28;14.30;;;9.55;;
82159;SDS011;71734;50.876;7.372;2023-08-21T08:35:56;14.23;;;9.80;;
82159;SDS011;71734;50.876;7.372;2023-08-21T08:38:24;14.35;;;9.93;;
82159;SDS011;71734;50.876;7.372;2023-08-21T08:40:51;14.85;;;10.85;;
82159;SDS011;71734;50.876;7.372;2023-08-21T08:43:21;13.40;;;10.68;;
82159;SDS011;71734;50.876;7.372;2023-08-21T08:45:54;14.10;;;10.25;;
82159;SDS011;71734;50.876;7.372;2023-08-21T08:48:24;14.38;;;10.55;;
82159;SDS011;71734;50.876;7.372;2023-08-21T08:50:53;12.25;;;10.27;;
82159;SDS011;71734;50.876;7.372;2023-08-21T08:53:21;14.05;;;11.52;;
82159;SDS011;71734;50.876;7.372;2023-08-21T08:55:50;12.57;;;10.15;;
82159;SDS011;71734;50.876;7.372;2023-08-21T08:58:18;11.50;;;10.15;;
82159;SDS011;71734;50.876;7.372;2023-08-21T09:00:45;13.32;;;10.52;;
82159;SDS011;71734;50.876;7.372;2023-08-21T09:03:13;12.75;;;9.82;;
82159;SDS011;71734;50.876;7.372;2023-08-21T09:05:41;12.02;;;10.38;;
82159;SDS011;71734;50.876;7.372;2023-08-21T09:08:11;12.00;;;9.65;;
82159;SDS011;71734;50.876;7.372;2023-08-21T09:10:44;11.63;;;9.52;;
82159;SDS011;71734;50.876;7.372;2023-08-21T09:13:11;11.65;;;9.52;;
82159;SDS011;71734;50.876;7.372;2023-08-21T09:15:43;11.60;;;9.73;;
82159;SDS011;71734;50.876;7.372;2023-08-21T09:18:10;14.20;;;10.15;;
82159;SDS011;71734;50.876;7.372;2023-08-21T09:20:37;12.15;;;10.25;;
82159;SDS011;71734;50.876;7.372;2023-08-21T09:23:07;12.45;;;10.25;;
82159;SDS011;71734;50.876;7.372;2023-08-21T09:25:34;12.93;;;10.10;;
82159;SDS011;71734;50.876;7.372;2023-08-21T09:28:05;11.32;;;9.90;;
82159;SDS011;71734;50.876;7.372;2023-08-21T09:30:45;12.60;;;10.95;;
82159;SDS011;71734;50.876;7.372;2023-08-21T09:33:12;12.02;;;10.65;;
82159;SDS011;71734;50.876;7.372;2023-08-21T09:35:39;12.55;;;11.25;;
82159;SDS011;71734;50.876;7.372;2023-08-21T09:38:08;11.70;;;10.48;;
82159;SDS011;71734;50.876;7.372;2023-08-21T09:40:38;13.85;;;11.70;;
82159;SDS011;71734;50.876;7.372;2023-08-21T09:43:08;14.60;;;11.32;;
82159;SDS011;71734;50.876;7.372;2023-08-21T09:45:36;13.95;;;10.50;;
82159;SDS011;71734;50.876;7.372;2023-08-21T09:48:03;12.65;;;10.90;;
82159;SDS011;71734;50.876;7.372;2023-08-21T09:50:32;12.38;;;10.13;;
82159;SDS011;71734;50.876;7.372;2023-08-21T09:52:59;13.93;;;11.02;;
82159;SDS011;71734;50.876;7.372;2023-08-21T09:55:27;11.20;;;10.05;;
82159;SDS011;71734;50.876;7.372;2023-08-21T09:58:02;12.45;;;10.50;;
82159;SDS011;71734;50.876;7.372;2023-08-21T10:00:31;13.48;;;10.23;;
82159;SDS011;71734;50.876;7.372;2023-08-21T10:03:06;12.32;;;10.02;;
82159;SDS011;71734;50.876;7.372;2023-08-21T10:05:35;12.60;;;9.80;;
82159;SDS011;71734;50.876;7.372;2023-08-21T10:08:04;11.38;;;9.57;;
82159;SDS011;71734;50.876;7.372;2023-08-21T10:10:33;12.35;;;10.57;;
82159;SDS011;71734;50.876;7.372;2023-08-21T10:13:00;12.48;;;10.38;;
82159;SDS011;71734;50.876;7.372;2023-08-21T10:15:30;13.48;;;10.30;;
82159;SDS011;71734;50.876;7.372;2023-08-21T10:20:45;13.05;;;10.77;;
82159;SDS011;71734;50.876;7.372;2023-08-21T10:23:23;12.13;;;10.18;;
82159;SDS011;71734;50.876;7.372;2023-08-21T10:25:56;13.70;;;11.25;;
82159;SDS011;71734;50.876;7.372;2023-08-21T10:28:23;13.15;;;11.40;;
82159;SDS011;71734;50.876;7.372;2023-08-21T10:30:51;13.30;;;11.02;;
82159;SDS011;71734;50.876;7.372;2023-08-21T10:33:18;13.15;;;10.98;;
82159;SDS011;71734;50.876;7.372;2023-08-21T10:36:23;15.68;;;11.45;;
82159;SDS011;71734;50.876;7.372;2023-08-21T10:39:03;12.15;;;10.43;;
82159;SDS011;71734;50.876;7.372;2023-08-21T10:41:34;12.57;;;11.27;;
82159;SDS011;71734;50.876;7.372;2023-08-21T10:44:02;15.82;;;11.65;;
82159;SDS011;71734;50.876;7.372;2023-08-21T10:49:43;11.45;;;10.25;;
82159;SDS011;71734;50.876;7.372;2023-08-21T10:52:10;12.38;;;9.95;;
82159;SDS011;71734;50.876;7.372;2023-08-21T10:54:47;11.27;;;9.48;;
82159;SDS011;71734;50.876;7.372;2023-08-21T10:57:15;13.32;;;11.73;;
82159;SDS011;71734;50.876;7.372;2023-08-21T10:59:52;13.18;;;11.40;;
82159;SDS011;71734;50.876;7.372;2023-08-21T11:02:22;12.85;;;11.52;;
82159;SDS011;71734;50.876;7.372;2023-08-21T11:04:49;13.18;;;11.05;;
82159;SDS011;71734;50.876;7.372;2023-08-21T11:07:16;13.98;;;11.50;;
82159;SDS011;71734;50.876;7.372;2023-08-21T11:09:42;13.85;;;11.77;;
82159;SDS011;71734;50.876;7.372;2023-08-21T11:12:11;12.88;;;11.50;;
82159;SDS011;71734;50.876;7.372;2023-08-21T11:14:39;13.25;;;11.02;;
82159;SDS011;71734;50.876;7.372;2023-08-21T11:17:08;12.88;;;11.48;;
82159;SDS011;71734;50.876;7.372;2023-08-21T11:19:37;12.90;;;11.70;;
82159;SDS011;71734;50.876;7.372;2023-08-21T11:22:04;12.90;;;11.52;;
82159;SDS011;71734;50.876;7.372;2023-08-21T11:24:41;12.40;;;10.85;;
82159;SDS011;71734;50.876;7.372;2023-08-21T11:27:09;12.98;;;11.55;;
82159;SDS011;71734;50.876;7.372;2023-08-21T11:29:39;11.73;;;10.43;;
82159;SDS011;71734;50.876;7.372;2023-08-21T11:32:10;12.80;;;10.27;;
82159;SDS011;71734;50.876;7.372;2023-08-21T11:34:42;11.32;;;10.07;;
82159;SDS011;71734;50.876;7.372;2023-08-21T11:37:15;10.80;;;8.90;;
82159;SDS011;71734;50.876;7.372;2023-08-21T11:39:43;12.20;;;9.77;;
82159;SDS011;71734;50.876;7.372;2023-08-21T11:42:11;11.93;;;8.90;;
82159;SDS011;71734;50.876;7.372;2023-08-21T11:44:43;11.73;;;8.90;;
82159;SDS011;71734;50.876;7.372;2023-08-21T11:47:10;12.70;;;9.65;;
82159;SDS011;71734;50.876;7.372;2023-08-21T11:49:41;13.52;;;9.52;;
82159;SDS011;71734;50.876;7.372;2023-08-21T11:52:12;11.07;;;9.77;;
82159;SDS011;71734;50.876;7.372;2023-08-21T11:54:47;11.50;;;10.30;;
82159;SDS011;71734;50.876;7.372;2023-08-21T11:57:14;11.93;;;9.63;;
82159;SDS011;71734;50.876;7.372;2023-08-21T11:59:48;12.20;;;9.85;;
82159;SDS011;71734;50.876;7.372;2023-08-21T12:02:16;12.00;;;9.63;;
82159;SDS011;71734;50.876;7.372;2023-08-21T12:04:47;17.95;;;14.10;;
82159;SDS011;71734;50.876;7.372;2023-08-21T12:07:18;10.20;;;7.65;;
82159;SDS011;71734;50.876;7.372;2023-08-21T12:09:51;8.95;;;7.20;;
82159;SDS011;71734;50.876;7.372;2023-08-21T12:12:18;11.65;;;9.38;;
82159;SDS011;71734;50.876;7.372;2023-08-21T12:14:45;9.10;;;7.38;;
82159;SDS011;71734;50.876;7.372;2023-08-21T12:17:17;9.55;;;7.20;;
82159;SDS011;71734;50.876;7.372;2023-08-21T12:19:46;12.00;;;7.05;;
82159;SDS011;71734;50.876;7.372;2023-08-21T12:22:22;9.63;;;6.72;;
82159;SDS011;71734;50.876;7.372;2023-08-21T12:24:49;7.18;;;5.60;;
82159;SDS011;71734;50.876;7.372;2023-08-21T12:27:20;9.13;;;6.00;;
82159;SDS011;71734;50.876;7.372;2023-08-21T12:29:47;9.27;;;6.18;;
82159;SDS011;71734;50.876;7.372;2023-08-21T12:32:19;8.00;;;6.72;;
82159;SDS011;71734;50.876;7.372;2023-08-21T12:35:08;8.38;;;6.88;;
82159;SDS011;71734;50.876;7.372;2023-08-21T12:37:43;10.00;;;6.90;;
82159;SDS011;71734;50.876;7.372;2023-08-21T12:40:12;8.82;;;6.68;;
82159;SDS011;71734;50.876;7.372;2023-08-21T12:42:41;9.38;;;6.95;;
82159;SDS011;71734;50.876;7.372;2023-08-21T12:45:08;10.73;;;6.97;;
82159;SDS011;71734;50.876;7.372;2023-08-21T12:47:36;11.18;;;7.90;;
82159;SDS011;71734;50.876;7.372;2023-08-21T12:50:04;10.38;;;7.50;;
82159;SDS011;71734;50.876;7.372;2023-08-21T12:52:33;14.27;;;8.15;;
82159;SDS011;71734;50.876;7.372;2023-08-21T12:55:00;9.60;;;6.85;;
82159;SDS011;71734;50.876;7.372;2023-08-21T12:57:35;8.70;;;6.65;;
82159;SDS011;71734;50.876;7.372;2023-08-21T13:00:01;11.43;;;7.13;;
82159;SDS011;71734;50.876;7.372;2023-08-21T13:02:29;9.50;;;7.40;;
82159;SDS011;71734;50.876;7.372;2023-08-21T13:05:03;11.50;;;7.63;;
82159;SDS011;71734;50.876;7.372;2023-08-21T13:07:31;10.25;;;6.55;;
82159;SDS011;71734;50.876;7.372;2023-08-21T13:09:59;8.63;;;7.53;;
82159;SDS011;71734;50.876;7.372;2023-08-21T13:12:27;10.48;;;6.82;;
82159;SDS011;71734;50.876;7.372;2023-08-21T13:14:59;8.65;;;6.15;;
82159;SDS011;71734;50.876;7.372;2023-08-21T13:17:26;9.32;;;6.88;;
82159;SDS011;71734;50.876;7.372;2023-08-21T13:19:58;10.00;;;6.78;;
82159;SDS011;71734;50.876;7.372;2023-08-21T13:22:24;8.45;;;6.03;;
82159;SDS011;71734;50.876;7.372;2023-08-21T13:24:51;11.07;;;7.20;;
82159;SDS011;71734;50.876;7.372;2023-08-21T13:27:21;9.05;;;6.70;;
82159;SDS011;71734;50.876;7.372;2023-08-21T13:29:48;8.30;;;5.70;;
82159;SDS011;71734;50.876;7.372;2023-08-21T13:32:14;9.57;;;7.15;;
82159;SDS011;71734;50.876;7.372;2023-08-21T13:34:41;9.63;;;7.03;;
82159;SDS011;71734;50.876;7.372;2023-08-21T13:37:07;9.48;;;6.95;;
82159;SDS011;71734;50.876;7.372;2023-08-21T13:39:34;8.90;;;6.38;;
82159;SDS011;71734;50.876;7.372;2023-08-21T13:42:00;9.15;;;6.65;;
82159;SDS011;71734;50.876;7.372;2023-08-21T13:44:35;9.70;;;7.22;;
82159;SDS011;71734;50.876;7.372;2023-08-21T13:47:01;9.75;;;6.50;;
82159;SDS011;71734;50.876;7.372;2023-08-21T13:49:36;8.88;;;6.65;;
82159;SDS011;71734;50.876;7.372;2023-08-21T13:52:03;8.65;;;6.32;;
82159;SDS011;71734;50.876;7.372;2023-08-21T13:54:35;8.15;;;5.60;;
82159;SDS011;71734;50.876;7.372;2023-08-21T13:57:02;8.18;;;5.05;;
82159;SDS011;71734;50.876;7.372;2023-08-21T13:59:28;10.18;;;5.95;;
82159;SDS011;71734;50.876;7.372;2023-08-21T14:02:04;9.30;;;6.45;;
82159;SDS011;71734;50.876;7.372;2023-08-21T14:04:33;9.95;;;5.88;;
82159;SDS011;71734;50.876;7.372;2023-08-21T14:07:02;8.55;;;5.85;;
82159;SDS011;71734;50.876;7.372;2023-08-21T14:09:28;8.18;;;5.47;;
82159;SDS011;71734;50.876;7.372;2023-08-21T14:12:01;9.27;;;5.32;;
82159;SDS011;71734;50.876;7.372;2023-08-21T14:14:27;8.00;;;5.20;;
82159;SDS011;71734;50.876;7.372;2023-08-21T14:17:08;6.72;;;4.72;;
82159;SDS011;71734;50.876;7.372;2023-08-21T14:19:41;8.13;;;5.45;;
82159;SDS011;71734;50.876;7.372;2023-08-21T14:22:08;8.43;;;5.25;;
82159;SDS011;71734;50.876;7.372;2023-08-21T14:24:34;9.85;;;5.47;;
82159;SDS011;71734;50.876;7.372;2023-08-21T14:27:04;9.30;;;5.53;;
82159;SDS011;71734;50.876;7.372;2023-08-21T14:29:31;8.55;;;5.05;;
82159;SDS011;71734;50.876;7.372;2023-08-21T14:32:11;8.18;;;4.50;;
82159;SDS011;71734;50.876;7.372;2023-08-21T14:34:37;9.18;;;4.43;;
82159;SDS011;71734;50.876;7.372;2023-08-21T14:37:13;7.28;;;4.15;;
82159;SDS011;71734;50.876;7.372;2023-08-21T14:39:40;7.45;;;4.22;;
82159;SDS011;71734;50.876;7.372;2023-08-21T14:42:06;9.95;;;5.00;;
82159;SDS011;71734;50.876;7.372;2023-08-21T14:44:32;8.43;;;4.70;;
82159;SDS011;71734;50.876;7.372;2023-08-21T14:46:59;6.97;;;4.57;;
82159;SDS011;71734;50.876;7.372;2023-08-21T14:49:26;7.25;;;5.05;;
82159;SDS011;71734;50.876;7.372;2023-08-21T14:51:53;8.20;;;4.70;;
82159;SDS011;71734;50.876;7.372;2023-08-21T14:54:20;8.57;;;5.15;;
82159;SDS011;71734;50.876;7.372;2023-08-21T14:56:46;7.82;;;5.30;;